createdAt,value
2023-04-19T00:02:23.840Z,10.00
2023-04-19T00:04:50.965Z,9.90
2023-04-19T00:07:18.638Z,9.90
2023-04-19T00:09:45.457Z,9.80
2023-04-19T00:12:12.270Z,9.80
2023-04-19T00:14:39.289Z,9.80
2023-04-19T00:17:06.204Z,9.80
2023-04-19T00:19:33.159Z,9.80
2023-04-19T00:21:59.971Z,9.70
2023-04-19T00:24:26.751Z,9.70
2023-04-19T00:26:53.795Z,9.70
2023-04-19T00:29:20.733Z,9.60
2023-04-19T00:31:47.624Z,9.60
2023-04-19T00:34:14.700Z,9.70
2023-04-19T00:36:41.750Z,9.60
2023-04-19T00:39:08.532Z,9.60
2023-04-19T00:41:35.322Z,9.50
2023-04-19T00:44:02.178Z,9.50
2023-04-19T00:46:29.061Z,9.60
2023-04-19T00:48:56.373Z,9.60
2023-04-19T00:51:23.786Z,9.60
2023-04-19T00:53:50.669Z,9.60
2023-04-19T00:56:19.052Z,9.60
2023-04-19T00:58:46.272Z,9.50
2023-04-19T01:01:13.204Z,9.50
2023-04-19T01:03:40.335Z,9.40
2023-04-19T01:06:07.555Z,9.40
2023-04-19T01:08:34.446Z,9.40
2023-04-19T01:11:01.479Z,9.40
2023-04-19T01:13:28.348Z,9.30
2023-04-19T01:15:56.127Z,9.40
2023-04-19T01:18:24.560Z,9.40
2023-04-19T01:20:51.904Z,9.40
2023-04-19T01:23:18.664Z,9.40
2023-04-19T01:25:46.326Z,9.40
2023-04-19T01:28:13.128Z,9.30
2023-04-19T01:30:40.270Z,9.30
2023-04-19T01:33:07.087Z,9.40
2023-04-19T01:35:34.034Z,9.50
2023-04-19T01:38:02.116Z,9.40
2023-04-19T01:40:29.096Z,9.50
2023-04-19T01:42:56.033Z,9.50
2023-04-19T01:45:22.834Z,9.50
2023-04-19T01:47:49.695Z,9.50
2023-04-19T01:50:16.833Z,9.60
2023-04-19T01:52:44.721Z,9.70
2023-04-19T01:55:12.010Z,9.50
2023-04-19T01:57:38.873Z,9.60
2023-04-19T02:00:07.378Z,9.70
2023-04-19T02:02:36.510Z,9.60
2023-04-19T02:05:03.841Z,9.60
2023-04-19T02:07:30.703Z,9.60
2023-04-19T02:09:59.644Z,9.60
2023-04-19T02:12:33.619Z,9.70
2023-04-19T02:15:02.296Z,9.70
2023-04-19T02:17:29.150Z,9.70
2023-04-19T02:19:56.102Z,9.80
2023-04-19T02:22:23.089Z,9.80
2023-04-19T02:24:53.236Z,9.80
2023-04-19T02:27:20.082Z,9.90
2023-04-19T02:29:46.926Z,9.90
2023-04-19T02:32:13.852Z,9.90
2023-04-19T02:34:40.817Z,10.00
2023-04-19T02:37:07.690Z,10.00
2023-04-19T02:39:34.703Z,10.10
2023-04-19T02:42:02.303Z,10.10
2023-04-19T02:44:29.067Z,10.20
2023-04-19T02:46:57.662Z,10.20
2023-04-19T02:49:24.494Z,10.30
2023-04-19T02:51:52.785Z,10.30
2023-04-19T02:54:19.646Z,10.20
2023-04-19T02:56:46.413Z,10.30
2023-04-19T02:59:13.250Z,10.20
2023-04-19T03:01:40.322Z,10.30
2023-04-19T03:04:07.264Z,10.30
2023-04-19T03:06:34.147Z,10.30
2023-04-19T03:09:01.105Z,10.30
2023-04-19T03:11:27.922Z,10.30
2023-04-19T03:13:54.806Z,10.20
2023-04-19T03:16:22.085Z,10.30
2023-04-19T03:18:49.578Z,10.30
2023-04-19T03:21:16.563Z,10.40
2023-04-19T03:23:43.355Z,10.30
2023-04-19T03:26:10.319Z,10.30
2023-04-19T03:28:37.227Z,10.30
2023-04-19T03:31:04.122Z,10.40
2023-04-19T03:33:31.027Z,10.40
2023-04-19T03:35:57.785Z,10.40
2023-04-19T03:38:24.626Z,10.50
2023-04-19T03:40:51.542Z,10.50
2023-04-19T03:43:18.583Z,10.50
2023-04-19T03:45:46.885Z,10.60
2023-04-19T03:48:13.794Z,10.60
2023-04-19T03:50:40.709Z,10.60
2023-04-19T03:53:07.581Z,10.60
2023-04-19T03:55:34.396Z,10.70
2023-04-19T03:58:01.204Z,10.70
2023-04-19T04:00:28.067Z,10.60
2023-04-19T04:02:55.085Z,10.60
2023-04-19T04:05:22.376Z,10.70
2023-04-19T04:07:49.250Z,10.70
2023-04-19T04:10:16.386Z,10.70
2023-04-19T04:12:43.438Z,10.70
2023-04-19T04:15:10.878Z,10.70
2023-04-19T04:17:37.773Z,10.70
2023-04-19T04:20:05.774Z,10.60
2023-04-19T04:22:32.902Z,10.60
2023-04-19T04:25:01.231Z,10.50
2023-04-19T04:27:28.323Z,10.50
2023-04-19T04:29:56.960Z,10.40
2023-04-19T04:32:23.895Z,10.40
2023-04-19T04:34:51.385Z,10.30
2023-04-19T04:37:18.261Z,10.30
2023-04-19T04:39:45.112Z,10.20
2023-04-19T04:42:12.306Z,10.20
2023-04-19T04:44:39.211Z,10.20
2023-04-19T04:47:06.102Z,10.30
2023-04-19T04:49:32.930Z,10.30
2023-04-19T04:52:00.017Z,10.30
2023-04-19T04:54:26.801Z,10.20
2023-04-19T04:56:53.689Z,10.20
2023-04-19T04:59:20.593Z,10.20
2023-04-19T05:01:47.688Z,10.20
2023-04-19T05:04:14.817Z,10.20
2023-04-19T05:06:41.928Z,10.20
2023-04-19T05:09:08.765Z,10.20
2023-04-19T05:11:35.697Z,10.20
2023-04-19T05:14:03.275Z,10.20
2023-04-19T05:16:30.149Z,10.20
2023-04-19T05:18:57.096Z,10.20
2023-04-19T05:21:24.018Z,10.20
2023-04-19T05:23:54.201Z,10.20
2023-04-19T05:26:21.576Z,10.20
2023-04-19T05:28:48.843Z,10.20
2023-04-19T05:31:15.842Z,10.20
2023-04-19T05:33:43.018Z,10.20
2023-04-19T05:36:10.226Z,10.20
2023-04-19T05:38:37.081Z,10.30
2023-04-19T05:41:04.767Z,10.30
2023-04-19T05:43:31.666Z,10.40
2023-04-19T05:45:58.686Z,10.40
2023-04-19T05:48:25.831Z,10.40
2023-04-19T05:50:55.341Z,10.40
2023-04-19T05:53:22.269Z,10.40
2023-04-19T05:55:51.340Z,10.50
2023-04-19T05:58:18.873Z,10.60
2023-04-19T06:00:46.373Z,10.60
2023-04-19T06:03:13.421Z,10.60
2023-04-19T06:05:41.110Z,10.70
2023-04-19T06:08:09.630Z,10.80
2023-04-19T06:10:51.920Z,10.90
2023-04-19T06:13:21.354Z,11.00
2023-04-19T06:15:49.018Z,11.00
2023-04-19T06:18:18.836Z,11.10
2023-04-19T06:20:46.834Z,11.30
2023-04-19T06:23:15.152Z,11.20
2023-04-19T06:25:42.189Z,11.30
2023-04-19T06:28:09.079Z,11.40
2023-04-19T06:30:36.390Z,11.50
2023-04-19T06:33:03.407Z,11.50
2023-04-19T06:35:30.521Z,11.50
2023-04-19T06:37:57.507Z,11.60
2023-04-19T06:40:25.371Z,11.70
2023-04-19T06:42:53.194Z,11.80
2023-04-19T06:45:20.154Z,11.90
2023-04-19T06:47:47.207Z,11.80
2023-04-19T06:50:14.230Z,12.00
2023-04-19T06:52:41.332Z,11.90
2023-04-19T06:55:08.654Z,12.00
2023-04-19T06:57:35.785Z,11.90
2023-04-19T07:00:04.457Z,12.00
2023-04-19T07:02:31.770Z,12.10
2023-04-19T07:04:58.751Z,12.20
2023-04-19T07:07:26.119Z,12.10
2023-04-19T07:09:53.037Z,12.20
2023-04-19T07:12:20.002Z,12.10
2023-04-19T07:14:46.952Z,12.10
2023-04-19T07:17:14.534Z,12.20
2023-04-19T07:19:42.483Z,12.30
2023-04-19T07:22:09.454Z,12.40
2023-04-19T07:24:36.310Z,12.30
2023-04-19T07:27:03.093Z,12.40
2023-04-19T07:29:30.029Z,12.70
2023-04-19T07:31:56.905Z,12.80
2023-04-19T07:34:23.921Z,12.90
2023-04-19T07:36:50.725Z,12.60
2023-04-19T07:39:17.581Z,12.70
2023-04-19T07:41:45.496Z,12.70
2023-04-19T07:44:13.595Z,12.80
2023-04-19T07:46:43.602Z,12.90
2023-04-19T07:49:10.412Z,13.00
2023-04-19T07:51:37.256Z,13.10
2023-04-19T07:54:04.076Z,13.30
2023-04-19T07:56:30.926Z,13.50
2023-04-19T07:59:07.357Z,13.40
2023-04-19T08:01:35.899Z,13.60
2023-04-19T08:04:03.169Z,13.50
2023-04-19T08:06:30.862Z,13.60
2023-04-19T08:08:57.944Z,13.50
2023-04-19T08:11:25.356Z,13.70
2023-04-19T08:14:04.532Z,13.60
2023-04-19T08:19:08.332Z,13.80
2023-04-19T08:21:41.140Z,13.80
2023-04-19T08:24:08.839Z,13.90
2023-04-19T08:26:35.678Z,14.00
2023-04-19T08:29:02.621Z,14.20
2023-04-19T08:31:29.609Z,14.30
2023-04-19T08:33:57.090Z,14.20
2023-04-19T08:36:36.953Z,14.20
2023-04-19T08:39:08.312Z,14.30
2023-04-19T08:41:40.066Z,14.50
2023-04-19T08:44:08.414Z,14.50
2023-04-19T08:46:35.726Z,14.60
2023-04-19T08:49:06.008Z,14.60
2023-04-19T08:51:34.162Z,14.70
2023-04-19T08:54:04.187Z,14.40
2023-04-19T08:56:35.617Z,14.50
2023-04-19T08:59:15.742Z,14.40
2023-04-19T09:01:45.286Z,14.70
2023-04-19T09:04:34.660Z,14.90
2023-04-19T09:06:59.112Z,14.90
2023-04-19T09:09:36.985Z,14.60
2023-04-19T09:12:17.668Z,15.00
2023-04-19T09:17:17.291Z,15.60
2023-04-19T09:19:49.382Z,15.50
2023-04-19T09:22:16.554Z,15.50
2023-04-19T09:27:16.847Z,15.60
2023-04-19T09:29:54.110Z,15.60
2023-04-19T09:32:21.351Z,15.40
2023-04-19T09:35:00.776Z,15.60
2023-04-19T09:37:56.821Z,15.80
2023-04-19T09:40:25.450Z,15.90
2023-04-19T09:48:07.640Z,15.70
2023-04-19T09:50:46.814Z,15.60
2023-04-19T09:53:23.514Z,15.60
2023-04-19T09:56:00.404Z,15.80
2023-04-19T09:58:34.433Z,15.90
2023-04-19T10:06:10.713Z,16.10
2023-04-19T10:08:43.629Z,16.20
2023-04-19T10:11:12.249Z,16.40
2023-04-19T10:13:39.967Z,16.30
2023-04-19T10:16:18.234Z,16.30
2023-04-19T10:18:46.304Z,15.90
2023-04-19T10:21:14.138Z,16.20
2023-04-19T10:23:40.995Z,16.30
2023-04-19T10:26:07.930Z,16.30
2023-04-19T10:28:37.214Z,16.50
2023-04-19T10:31:05.066Z,16.20
2023-04-19T10:33:36.407Z,16.00
2023-04-19T10:36:04.183Z,15.70
2023-04-19T10:38:44.468Z,16.10
2023-04-19T10:41:16.460Z,16.50
2023-04-19T10:43:57.798Z,16.40
2023-04-19T10:46:26.015Z,16.40
2023-04-19T10:48:54.605Z,16.50
2023-04-19T10:51:29.693Z,16.60
2023-04-19T10:54:01.776Z,16.40
2023-04-19T10:56:34.516Z,16.70
2023-04-19T10:59:01.529Z,16.70
2023-04-19T11:01:38.130Z,16.80
2023-04-19T11:04:15.570Z,17.10
2023-04-19T11:06:52.427Z,17.00
2023-04-19T11:09:26.772Z,16.80
2023-04-19T11:11:57.730Z,17.00
2023-04-19T11:14:26.488Z,17.30
2023-04-19T11:16:53.439Z,17.40
2023-04-19T11:19:20.608Z,16.90
2023-04-19T11:21:48.271Z,16.90
2023-04-19T11:24:18.637Z,17.10
2023-04-19T11:26:46.527Z,16.80
2023-04-19T11:29:13.687Z,17.00
2023-04-19T11:31:43.890Z,17.30
2023-04-19T11:34:10.776Z,17.30
2023-04-19T11:36:51.228Z,17.30
2023-04-19T11:39:18.800Z,17.10
2023-04-19T11:41:47.330Z,17.10
2023-04-19T11:44:20.595Z,17.10
2023-04-19T11:47:00.643Z,17.30
2023-04-19T11:49:31.879Z,17.40
2023-04-19T11:52:00.570Z,17.40
2023-04-19T11:54:28.033Z,17.50
2023-04-19T11:57:05.615Z,17.30
2023-04-19T11:59:35.265Z,17.00
2023-04-19T12:02:09.811Z,16.90
2023-04-19T12:04:37.433Z,17.00
2023-04-19T12:07:06.929Z,16.90
2023-04-19T12:09:35.875Z,17.00
2023-04-19T12:12:03.604Z,17.20
2023-04-19T12:14:31.596Z,17.00
2023-04-19T12:17:13.733Z,17.00
2023-04-19T12:19:46.288Z,16.90
2023-04-19T12:22:20.354Z,16.70
2023-04-19T12:24:51.028Z,16.60
2023-04-19T12:27:18.550Z,17.00
2023-04-19T12:29:46.242Z,16.70
2023-04-19T12:32:14.813Z,16.60
2023-04-19T12:34:42.030Z,16.70
2023-04-19T12:37:08.800Z,17.00
2023-04-19T12:39:35.718Z,17.10
2023-04-19T12:42:02.891Z,16.70
2023-04-19T12:44:29.753Z,16.60
2023-04-19T12:46:57.845Z,16.40
2023-04-19T12:49:24.848Z,16.50
2023-04-19T12:51:51.675Z,17.10
2023-04-19T12:54:18.572Z,17.10
2023-04-19T12:56:45.443Z,16.70
2023-04-19T12:59:12.279Z,16.60
2023-04-19T13:01:39.186Z,16.80
2023-04-19T13:04:07.907Z,16.90
2023-04-19T13:06:34.971Z,16.50
2023-04-19T13:09:01.844Z,16.60
2023-04-19T13:11:31.351Z,16.80
2023-04-19T13:13:58.218Z,16.80
2023-04-19T13:16:25.406Z,17.00
2023-04-19T13:18:54.673Z,17.10
2023-04-19T13:21:23.559Z,17.00
2023-04-19T13:23:50.820Z,16.90
2023-04-19T13:26:17.759Z,16.70
2023-04-19T13:28:45.284Z,16.70
2023-04-19T13:31:12.225Z,16.70
2023-04-19T13:33:39.151Z,16.60
2023-04-19T13:36:06.556Z,16.90
2023-04-19T13:38:33.459Z,17.30
2023-04-19T13:41:00.622Z,17.10
2023-04-19T13:43:27.503Z,17.10
2023-04-19T13:45:54.492Z,17.30
2023-04-19T13:48:21.669Z,17.00
2023-04-19T13:50:50.944Z,16.70
2023-04-19T13:53:18.046Z,16.80
2023-04-19T13:55:44.856Z,17.00
2023-04-19T13:58:11.624Z,17.10
2023-04-19T14:00:38.521Z,17.20
2023-04-19T14:03:05.647Z,17.00
2023-04-19T14:05:32.678Z,16.80
2023-04-19T14:07:59.590Z,17.00
2023-04-19T14:10:26.450Z,17.50
2023-04-19T14:12:53.474Z,17.30
2023-04-19T14:15:20.929Z,17.20
2023-04-19T14:17:47.785Z,17.20
2023-04-19T14:20:15.128Z,17.10
2023-04-19T14:22:41.943Z,17.30
2023-04-19T14:25:09.183Z,16.80
2023-04-19T14:27:36.098Z,16.50
2023-04-19T14:30:03.229Z,16.90
2023-04-19T14:32:30.448Z,17.00
2023-04-19T14:34:57.385Z,17.00
2023-04-19T14:37:24.599Z,16.90
2023-04-19T14:39:51.765Z,16.80
2023-04-19T14:42:22.084Z,16.90
2023-04-19T14:44:51.417Z,16.80
2023-04-19T14:47:18.542Z,16.70
2023-04-19T14:49:45.384Z,16.50
2023-04-19T14:52:12.411Z,16.70
2023-04-19T14:54:39.251Z,16.80
2023-04-19T14:57:06.138Z,16.70
2023-04-19T14:59:33.073Z,16.80
2023-04-19T15:01:59.898Z,16.80
2023-04-19T15:04:26.883Z,16.60
2023-04-19T15:06:53.826Z,16.50
2023-04-19T15:09:20.590Z,16.40
2023-04-19T15:11:47.423Z,16.40
2023-04-19T15:14:14.341Z,16.50
2023-04-19T15:16:41.305Z,16.40
2023-04-19T15:19:08.281Z,16.60
2023-04-19T15:21:35.380Z,16.40
2023-04-19T15:24:02.537Z,16.20
2023-04-19T15:26:29.371Z,16.30
2023-04-19T15:28:57.751Z,16.40
2023-04-19T15:31:25.319Z,16.30
2023-04-19T15:33:53.016Z,16.40
2023-04-19T15:36:19.850Z,16.30
2023-04-19T15:38:46.726Z,16.20
2023-04-19T15:41:14.007Z,16.30
2023-04-19T15:43:41.028Z,16.00
2023-04-19T15:46:14.693Z,16.00
2023-04-19T15:48:44.083Z,15.80
2023-04-19T15:51:15.314Z,15.90
2023-04-19T15:53:42.552Z,15.90
2023-04-19T15:56:10.179Z,15.90
2023-04-19T15:58:37.369Z,16.00
2023-04-19T16:01:04.314Z,16.20
2023-04-19T16:03:31.515Z,16.20
2023-04-19T16:05:58.472Z,16.40
2023-04-19T16:08:25.471Z,16.40
2023-04-19T16:10:52.469Z,16.20
2023-04-19T16:13:19.307Z,16.30
2023-04-19T16:15:46.275Z,16.10
2023-04-19T16:18:14.044Z,15.90
2023-04-19T16:20:41.803Z,15.80
2023-04-19T16:23:09.016Z,16.00
2023-04-19T16:25:35.983Z,15.80
2023-04-19T16:28:03.225Z,15.70
2023-04-19T16:30:30.103Z,15.60
2023-04-19T16:32:58.177Z,15.70
2023-04-19T16:35:26.762Z,15.60
2023-04-19T16:37:56.642Z,15.60
2023-04-19T16:40:24.975Z,15.70
2023-04-19T16:42:52.019Z,16.00
2023-04-19T16:45:18.865Z,15.90
2023-04-19T16:47:46.381Z,16.10
2023-04-19T16:50:14.502Z,16.30
2023-04-19T16:52:41.715Z,16.30
2023-04-19T16:55:08.764Z,16.40
2023-04-19T16:57:36.710Z,16.20
2023-04-19T17:00:05.990Z,16.50
2023-04-19T17:02:33.794Z,16.60
2023-04-19T17:05:01.209Z,16.60
2023-04-19T17:07:28.445Z,16.40
2023-04-19T17:09:55.935Z,16.30
2023-04-19T17:12:22.879Z,16.20
2023-04-19T17:14:49.983Z,16.10
2023-04-19T17:17:19.872Z,16.20
2023-04-19T17:19:47.107Z,16.50
2023-04-19T17:22:17.428Z,16.60
2023-04-19T17:24:44.290Z,16.50
2023-04-19T17:27:11.695Z,16.50
2023-04-19T17:29:38.606Z,16.20
2023-04-19T17:32:08.920Z,16.40
2023-04-19T17:34:37.017Z,16.30
2023-04-19T17:37:04.324Z,16.50
2023-04-19T17:39:31.299Z,16.50
2023-04-19T17:41:58.233Z,16.60
2023-04-19T17:44:25.124Z,16.60
2023-04-19T17:46:52.103Z,16.50
2023-04-19T17:49:20.234Z,16.40
2023-04-19T17:51:47.661Z,16.30
2023-04-19T17:54:15.359Z,16.20
2023-04-19T17:56:42.201Z,16.20
2023-04-19T17:59:09.105Z,16.00
2023-04-19T18:01:37.942Z,16.00
2023-04-19T18:04:05.353Z,15.40
2023-04-19T18:06:32.668Z,15.00
2023-04-19T18:09:00.461Z,14.80
2023-04-19T18:11:28.677Z,14.60
2023-04-19T18:13:56.278Z,14.40
2023-04-19T18:16:23.495Z,14.40
2023-04-19T18:18:50.705Z,14.40
2023-04-19T18:21:18.600Z,14.20
2023-04-19T18:23:45.847Z,14.20
2023-04-19T18:26:12.763Z,14.20
2023-04-19T18:28:40.097Z,14.20
2023-04-19T18:31:08.461Z,14.10
2023-04-19T18:33:35.538Z,14.00
2023-04-19T18:36:02.493Z,13.90
2023-04-19T18:38:29.462Z,13.90
2023-04-19T18:40:56.298Z,13.80
2023-04-19T18:43:24.527Z,13.80
2023-04-19T18:45:58.026Z,13.70
2023-04-19T18:48:28.108Z,13.60
2023-04-19T18:50:56.994Z,13.60
2023-04-19T18:53:27.772Z,13.50
2023-04-19T18:55:58.193Z,13.40
2023-04-19T18:58:27.013Z,13.40
2023-04-19T19:00:54.077Z,13.40
2023-04-19T19:03:48.337Z,13.30
2023-04-19T19:06:10.847Z,13.30
2023-04-19T19:08:37.927Z,13.30
2023-04-19T19:13:35.808Z,13.20
2023-04-19T19:16:02.737Z,13.20
2023-04-19T19:18:29.811Z,13.10
2023-04-19T19:21:03.332Z,13.10
2023-04-19T19:23:35.819Z,13.00
2023-04-19T19:26:06.306Z,13.00
2023-04-19T19:28:33.252Z,12.90
2023-04-19T19:31:00.195Z,12.90
2023-04-19T19:34:27.392Z,12.90
2023-04-19T19:36:55.940Z,12.90
2023-04-19T19:39:22.849Z,12.80
2023-04-19T19:42:05.135Z,12.80
2023-04-19T19:44:32.524Z,12.70
2023-04-19T19:46:59.476Z,12.70
2023-04-19T19:49:26.558Z,12.70
2023-04-19T19:51:58.502Z,12.70
2023-04-19T19:54:26.275Z,12.70
2023-04-19T19:57:39.083Z,12.60
2023-04-19T19:59:40.322Z,12.60
2023-04-19T20:02:07.715Z,12.50
2023-04-19T20:04:35.352Z,12.50
2023-04-19T20:09:32.590Z,12.40
2023-04-19T20:11:59.574Z,12.40
2023-04-19T20:14:27.635Z,12.40
2023-04-19T20:16:54.551Z,12.40
2023-04-19T20:19:21.408Z,12.30
2023-04-19T20:21:48.287Z,12.30
2023-04-19T20:24:15.353Z,12.30
2023-04-19T20:26:42.295Z,12.20
2023-04-19T20:29:09.229Z,12.10
2023-04-19T20:31:36.261Z,12.10
2023-04-19T20:34:03.527Z,12.00
2023-04-19T20:36:31.882Z,12.00
2023-04-19T20:38:59.298Z,11.90
2023-04-19T20:41:27.227Z,11.90
2023-04-19T20:43:57.231Z,11.80
2023-04-19T20:46:24.265Z,11.70
2023-04-19T20:48:51.171Z,11.70
2023-04-19T20:51:18.078Z,11.70
2023-04-19T20:53:44.935Z,11.60
2023-04-19T20:56:12.020Z,11.60
2023-04-19T20:58:40.114Z,11.60
2023-04-19T21:01:06.944Z,11.60
2023-04-19T21:03:34.097Z,11.50
2023-04-19T21:06:01.244Z,11.40
2023-04-19T21:08:28.125Z,11.40
2023-04-19T21:10:55.016Z,11.30
2023-04-19T21:13:21.924Z,11.30
2023-04-19T21:15:49.054Z,11.30
2023-04-19T21:18:15.963Z,11.30
2023-04-19T21:20:43.042Z,11.30
2023-04-19T21:23:10.062Z,11.30
2023-04-19T21:25:37.195Z,11.20
2023-04-19T21:28:04.245Z,11.20
2023-04-19T21:30:31.632Z,11.10
2023-04-19T21:32:58.499Z,11.10
2023-04-19T21:35:26.179Z,11.00
2023-04-19T21:37:53.042Z,10.90
2023-04-19T21:40:20.005Z,10.90
2023-04-19T21:42:46.830Z,10.90
2023-04-19T21:45:13.714Z,10.80
2023-04-19T21:47:40.912Z,10.80
2023-04-19T21:50:08.604Z,10.70
2023-04-19T21:52:35.491Z,10.70
2023-04-19T21:55:02.541Z,10.70
2023-04-19T21:57:31.086Z,10.70
2023-04-19T21:59:58.228Z,10.60
2023-04-19T22:02:25.226Z,10.60
2023-04-19T22:04:53.963Z,10.50
2023-04-19T22:07:23.881Z,10.50
2023-04-19T22:09:50.903Z,10.50
2023-04-19T22:12:17.812Z,10.50
2023-04-19T22:14:44.986Z,10.50
2023-04-19T22:17:12.506Z,10.40
2023-04-19T22:19:39.524Z,10.30
2023-04-19T22:22:06.594Z,10.30
2023-04-19T22:24:35.826Z,10.30
2023-04-19T22:27:04.393Z,10.30
2023-04-19T22:29:32.225Z,10.20
2023-04-19T22:31:59.150Z,10.20
2023-04-19T22:34:26.323Z,10.20
2023-04-19T22:36:53.180Z,10.20
2023-04-19T22:39:20.138Z,10.20
2023-04-19T22:41:47.283Z,10.10
2023-04-19T22:44:14.143Z,10.10
2023-04-19T22:46:40.989Z,10.10
2023-04-19T22:49:10.159Z,10.00
2023-04-19T22:51:38.332Z,9.90
2023-04-19T22:54:05.400Z,9.90
2023-04-19T22:56:32.267Z,9.90
2023-04-19T22:58:59.792Z,9.80
2023-04-19T23:01:26.962Z,9.80
2023-04-19T23:03:53.932Z,9.80
2023-04-19T23:06:20.772Z,9.70
2023-04-19T23:08:47.616Z,9.70
2023-04-19T23:11:14.432Z,9.70
2023-04-19T23:13:41.435Z,9.70
2023-04-19T23:16:11.891Z,9.70
2023-04-19T23:18:38.835Z,9.70
2023-04-19T23:21:06.172Z,9.60
2023-04-19T23:23:33.150Z,9.60
2023-04-19T23:26:00.107Z,9.60
2023-04-19T23:28:26.942Z,9.60
2023-04-19T23:30:53.848Z,9.50
2023-04-19T23:33:21.012Z,9.50
2023-04-19T23:35:47.804Z,9.40
2023-04-19T23:38:14.707Z,9.40
2023-04-19T23:40:41.510Z,9.30
2023-04-19T23:43:08.305Z,9.20
2023-04-19T23:45:35.150Z,9.20
2023-04-19T23:48:02.040Z,9.20
2023-04-19T23:50:28.979Z,9.20
2023-04-19T23:52:55.789Z,9.20
2023-04-19T23:55:22.683Z,9.10
2023-04-19T23:57:49.902Z,9.10
